»·PEaware :: N679HB KSBP-L52

N679HB :: KSBP-L52

FLIGHT INFORMATION

Flight Status: Arrived
Operator: Privately registered:
United States
More flights under this callsign
Pilot: Henrik G. (22897)
Aircraft: AERMACCHI WARRIOR
(F260)
More flights by this aircraft type
Origin: KSBP San Luis Co Regl
United States
Destination: L52 Oceano Co
United States
More flights between these airports :: More routes between these airports
Route:
File this flight plan on PilotEdge
Remarks:
Altitude:
(Current/Filed)
2,000ft
Speed:
(Current/Filed)
120kts
Departed: 10-Jan-19 03:42 AM
Arrived: 10-Jan-19 03:52 AM
Distance/Time
Traveled:
8nm/0:10
Distance/Time
To Go:
Arrived

Flight Plot

Page will automatically refresh every two minutes.


Map Options




Map Legend


Flown Route
Filed Route
Departure Airport
Arrival Airport
Navaid (VOR, NDB)
Fix

Horizontal Profiles

Position Reports

Time Latitude Longitude Heading Altitude Ground
Speed
10-Jan-19 03:16 35.238867 -120.638660 269 179ft 0kts
10-Jan-19 03:17 35.238867 -120.638660 269 179ft 0kts
10-Jan-19 03:18 35.238867 -120.638660 269 179ft 0kts
10-Jan-19 03:19 35.238867 -120.638660 269 179ft 0kts
10-Jan-19 03:20 35.238867 -120.638660 269 179ft 0kts
10-Jan-19 03:21 35.238867 -120.638660 269 179ft 0kts
10-Jan-19 03:22 35.238867 -120.638660 269 179ft 0kts
10-Jan-19 03:23 35.238867 -120.638660 269 179ft 0kts
10-Jan-19 03:24 35.238867 -120.638660 269 179ft 0kts
10-Jan-19 03:25 35.238867 -120.638660 269 179ft 0kts
10-Jan-19 03:26 35.238867 -120.638660 269 179ft 0kts
10-Jan-19 03:27 35.238867 -120.638660 269 179ft 0kts
10-Jan-19 03:28 35.238867 -120.638660 269 179ft 0kts
10-Jan-19 03:29 35.238867 -120.638660 269 179ft 0kts
10-Jan-19 03:30 35.238867 -120.638660 269 179ft 0kts
10-Jan-19 03:31 35.238867 -120.638660 269 179ft 0kts
10-Jan-19 03:32 35.238867 -120.638660 269 179ft 0kts
10-Jan-19 03:33 35.238867 -120.638660 269 179ft 0kts
10-Jan-19 03:34 35.238760 -120.638713 350 179ft 7kts
10-Jan-19 03:35 35.237657 -120.639408 132 179ft 8kts
10-Jan-19 03:36 35.236289 -120.637009 125 179ft 8kts
10-Jan-19 03:37 35.235370 -120.636140 267 179ft 0kts
10-Jan-19 03:38 35.235370 -120.636140 266 179ft 0kts
10-Jan-19 03:39 35.235370 -120.636140 267 179ft 0kts
10-Jan-19 03:40 35.235452 -120.637409 295 179ft 12kts
10-Jan-19 03:41 35.246637 -120.658087 302 692ft 111kts
10-Jan-19 03:42 35.248889 -120.692175 179 1172ft 136kts
10-Jan-19 03:43 35.225769 -120.667598 145 952ft 99kts
10-Jan-19 03:44 35.202978 -120.652854 168 890ft 86kts
10-Jan-19 03:45 35.181157 -120.646971 150 958ft 84kts
10-Jan-19 03:46 35.154919 -120.631717 182 1000ft 129kts
10-Jan-19 03:47 35.118976 -120.633629 163 685ft 124kts
10-Jan-19 03:48 35.097223 -120.604231 118 612ft 116kts
10-Jan-19 03:49 35.087749 -120.598466 312 317ft 96kts
10-Jan-19 03:50 35.102061 -120.623376 303 17ft 69kts
10-Jan-19 03:51 35.103481 -120.624799 222 17ft 0kts
10-Jan-19 03:52 35.103481 -120.624799 222 17ft 0kts
10-Jan-19 03:53 35.103481 -120.624799 222 17ft 0kts
10-Jan-19 03:54 35.103481 -120.624799 222 17ft 0kts
10-Jan-19 03:55 35.103481 -120.624799 222 17ft 0kts
10-Jan-19 03:56 35.103401 -120.624816 161 17ft 3kts
10-Jan-19 03:57 35.102007 -120.622342 124 17ft 6kts
10-Jan-19 03:58 35.100824 -120.621999 121 17ft 3kts
10-Jan-19 03:59 35.100651 -120.621656 126 17ft 5kts
10-Jan-19 04:00 35.100207 -120.619824 300 17ft 22kts
10-Jan-19 04:01 35.105251 -120.643586 207 943ft 72kts
10-Jan-19 04:02 35.086143 -120.637622 117 1195ft 99kts
10-Jan-19 04:03 35.076144 -120.604318 106 1057ft 105kts
10-Jan-19 04:04 35.091462 -120.590349 287 551ft 101kts
10-Jan-19 04:05 35.099829 -120.619091 303 29ft 75kts

Navigation Log

Ident Type
Flight plan parsing failed, navigation log unavailable